Time;durP1;ratioP1;P1;durP2;ratioP2;P2;SDS_P1;SDS_P2;PMS_P1;PMS_P2;Temp;Humidity;BMP_temperature;BMP_pressure;BME280_temperature;BME280_humidity;BME280_pressure;Samples;Min_cycle;Max_cycle;Signal;HPM_P1;HPM_P2
2022/11/04 00:04:04;;;;;;;21.80;8.73;;;;;;;9.18;100.00;99995.14;5003064;57;1138698;-76
2022/11/04 00:09:15;;;;;;;16.77;8.67;;;;;;;9.19;100.00;100006.06;5003014;58;1138692;-74
2022/11/04 00:14:21;;;;;;;15.60;8.33;;;;;;;9.18;100.00;100004.38;5018890;57;1140657;-77
2022/11/04 00:19:27;;;;;;;26.50;9.00;;;;;;;9.17;100.00;99990.83;4989773;58;1140650;-75
2022/11/04 00:29:47;;;;;;;21.25;9.78;;;;;;;9.16;100.00;99990.50;5027023;56;1138829;-75
2022/11/04 00:34:55;;;;;;;17.57;7.87;;;;;;;9.15;100.00;99992.78;5022393;56;1138921;-73
2022/11/04 00:40:00;;;;;;;20.53;8.53;;;;;;;9.17;100.00;99989.51;5075717;57;1139081;-76
2022/11/04 00:45:07;;;;;;;22.10;9.40;;;;;;;9.17;100.00;99987.71;5026753;57;1138802;-73
2022/11/04 00:50:13;;;;;;;30.23;9.47;;;;;;;9.17;100.00;99985.08;5026301;57;1138871;-74
2022/11/04 00:55:19;;;;;;;21.10;7.87;;;;;;;9.16;100.00;99979.95;5026640;57;1138767;-76
2022/11/04 01:00:24;;;;;;;18.97;8.53;;;;;;;9.18;100.00;99981.95;4970361;57;1138806;-75
2022/11/04 01:05:30;;;;;;;25.23;9.77;;;;;;;9.19;100.00;99975.72;4865605;58;1138770;-75
2022/11/04 01:10:43;;;;;;;18.87;9.07;;;;;;;9.18;100.00;99973.56;4895630;57;1138988;-74
2022/11/04 01:15:44;;;;;;;19.63;8.80;;;;;;;9.14;100.00;99972.16;4895422;58;1143209;-75
2022/11/04 01:20:50;;;;;;;16.63;8.30;;;;;;;9.15;100.00;99969.87;4895740;58;1138883;-76
2022/11/04 01:25:56;;;;;;;17.57;8.43;;;;;;;9.14;100.00;99959.44;4908446;58;1138904;-75
2022/11/04 01:31:10;;;;;;;23.18;9.30;;;;;;;9.09;100.00;99938.70;4975357;57;1138800;-75
2022/11/04 01:36:16;;;;;;;21.63;9.17;;;;;;;9.10;100.00;99932.94;5000491;57;1138754;-76
2022/11/04 01:41:26;;;;;;;25.73;9.47;;;;;;;9.09;100.00;99917.59;5026295;57;1138823;-73
2022/11/04 01:46:50;;;;;;;21.73;9.27;;;;;;;9.06;100.00;99913.88;5026860;57;1139235;-74
2022/11/04 01:52:01;;;;;;;26.57;9.28;;;;;;;9.02;100.00;99897.94;5026966;57;1138947;-76
2022/11/04 01:57:10;;;;;;;19.47;8.23;;;;;;;8.99;100.00;99884.19;5026450;57;1138921;-74
2022/11/04 02:02:16;;;;;;;15.43;7.70;;;;;;;8.99;100.00;99884.19;4920877;57;1138672;-76
2022/11/04 02:07:23;;;;;;;13.80;7.77;;;;;;;8.95;100.00;99879.63;4896123;57;1138784;-76
2022/11/04 02:18:05;;;;;;;17.57;8.38;;;;;;;8.98;100.00;99882.03;5008101;56;1138872;-74
2022/11/04 02:23:49;;;;;;;18.33;9.17;;;;;;;8.99;100.00;99861.28;5007886;56;1138890;-73
2022/11/04 02:29:16;;;;;;;18.83;8.27;;;;;;;8.96;100.00;99861.53;5007920;57;1138858;-74
2022/11/04 02:34:51;;;;;;;18.10;8.30;;;;;;;9.00;100.00;99848.94;5004472;57;1138655;-73
2022/11/04 02:40:14;;;;;;;26.90;9.63;;;;;;;8.97;100.00;99847.86;5015144;57;1138689;-76
2022/11/04 02:45:38;;;;;;;17.92;8.30;;;;;;;8.94;100.00;99838.39;5048259;57;1138828;-75
2022/11/04 02:51:00;;;;;;;17.50;8.93;;;;;;;8.97;100.00;99834.67;5054913;57;1138741;-75
2022/11/04 02:56:07;;;;;;;22.73;8.50;;;;;;;8.94;100.00;99829.64;5077504;56;1138881;-76
2022/11/04 03:01:17;;;;;;;18.17;9.37;;;;;;;8.95;100.00;99836.59;5013655;57;1138935;-73
2022/11/04 03:06:25;;;;;;;18.47;8.23;;;;;;;8.92;100.00;99830.25;4984150;57;1138746;-74
2022/11/04 03:11:31;;;;;;;20.97;9.83;;;;;;;8.92;100.00;99829.77;4984255;57;1138706;-73
2022/11/04 03:16:56;;;;;;;26.57;8.93;;;;;;;8.88;100.00;99820.42;4984017;57;1138966;-76
2022/11/04 03:22:14;;;;;;;19.42;8.48;;;;;;;8.87;100.00;99811.31;4983690;58;1138770;-74
2022/11/04 03:27:35;;;;;;;22.37;8.75;;;;;;;8.84;100.00;99806.32;4983703;58;1138783;-74
2022/11/04 03:33:00;;;;;;;18.97;8.80;;;;;;;8.83;100.00;99812.55;4923157;58;1138715;-73
2022/11/04 03:38:06;;;;;;;15.67;8.80;;;;;;;8.79;100.00;99811.48;5054862;57;1139111;-74
2022/11/04 03:43:27;;;;;;;25.40;9.30;;;;;;;8.78;100.00;99808.97;5066315;57;1138917;-75
2022/11/04 03:48:33;;;;;;;30.60;8.87;;;;;;;8.77;100.00;99805.97;5066026;57;1138747;-76
2022/11/04 03:53:39;;;;;;;18.83;8.73;;;;;;;8.68;100.00;99794.39;5066012;57;1138674;-74
2022/11/04 03:59:10;;;;;;;23.57;8.15;;;;;;;8.68;100.00;99795.70;5070355;57;1138844;-75
2022/11/04 04:04:32;;;;;;;19.93;9.17;;;;;;;8.69;100.00;99788.16;4891754;59;1138866;-74
2022/11/04 04:09:53;;;;;;;24.87;9.70;;;;;;;8.68;100.00;99793.55;4984079;58;1138616;-73
2022/11/04 04:15:06;;;;;;;22.17;9.03;;;;;;;8.64;100.00;99790.31;4980242;57;1138807;-76
2022/11/04 04:20:16;;;;;;;15.50;8.65;;;;;;;8.66;100.00;99796.78;4981761;58;1138588;-76
2022/11/04 04:30:50;;;;;;;20.00;8.33;;;;;;;8.63;100.00;99787.33;4983969;58;1139167;-74
2022/11/04 04:35:57;;;;;;;26.60;10.37;;;;;;;8.59;100.00;99771.87;4983622;58;1138777;-74
2022/11/04 04:46:31;;;;;;;21.60;8.83;;;;;;;8.57;100.00;99785.65;4981175;58;1140785;-74
2022/11/04 04:51:41;;;;;;;14.83;8.13;;;;;;;8.56;100.00;99774.27;4945785;58;1138946;-74
2022/11/04 04:56:47;;;;;;;15.58;8.70;;;;;;;8.55;100.00;99787.13;4935373;57;1139069;-75
2022/11/04 05:01:53;;;;;;;20.05;8.48;;;;;;;8.51;100.00;99782.21;4927724;58;1138992;-73
2022/11/04 05:06:58;;;;;;;22.30;9.65;;;;;;;8.47;100.00;99777.66;4975375;58;1138988;-74
2022/11/04 05:12:05;;;;;;;19.10;9.87;;;;;;;8.42;100.00;99779.82;4944452;58;1139036;-73
2022/11/04 05:17:11;;;;;;;31.43;16.63;;;;;;;8.41;100.00;99774.19;4896047;58;1138868;-73
2022/11/04 05:22:17;;;;;;;16.35;8.88;;;;;;;8.41;100.00;99776.34;4895606;58;1140959;-73
2022/11/04 05:27:23;;;;;;;20.17;8.43;;;;;;;8.40;100.00;99775.18;4896040;59;1138725;-73
2022/11/04 05:32:30;;;;;;;18.37;9.43;;;;;;;8.40;100.00;99773.86;4895841;58;1138933;-73
2022/11/04 05:37:36;;;;;;;24.13;12.97;;;;;;;8.38;100.00;99771.83;4933649;58;1138863;-73
2022/11/04 05:42:42;;;;;;;23.33;9.47;;;;;;;8.33;100.00;99771.34;4946090;58;1141223;-73
2022/11/04 05:47:48;;;;;;;21.55;9.73;;;;;;;8.31;100.00;99767.48;4946648;58;1138786;-74
2022/11/04 05:52:56;;;;;;;22.93;9.30;;;;;;;8.29;100.00;99769.40;4946585;58;1138856;-74
2022/11/04 05:58:01;;;;;;;18.00;9.47;;;;;;;8.24;100.00;99767.63;4949065;58;1138868;-73
2022/11/04 06:03:07;;;;;;;25.30;11.30;;;;;;;8.19;100.00;99765.00;4902411;57;1138970;-74
2022/11/04 06:08:14;;;;;;;16.90;9.00;;;;;;;8.15;100.00;99767.03;4926528;57;1140765;-73
2022/11/04 06:13:19;;;;;;;27.67;10.03;;;;;;;8.15;100.00;99772.30;4976163;58;1138846;-74
2022/11/04 06:18:25;;;;;;;23.17;10.77;;;;;;;8.16;100.00;99758.65;4975939;57;1140921;-74
2022/11/04 06:23:31;;;;;;;25.43;11.13;;;;;;;8.16;100.00;99767.88;4976105;57;1141042;-73
2022/11/04 06:28:37;;;;;;;31.53;12.20;;;;;;;8.14;100.00;99767.98;4976073;58;1140601;-73
2022/11/04 06:33:43;;;;;;;22.93;10.83;;;;;;;8.12;100.00;99767.27;4976195;57;1141085;-74
2022/11/04 06:38:51;;;;;;;22.57;12.33;;;;;;;8.17;100.00;99765.12;4877725;59;1140782;-73
2022/11/04 06:43:56;;;;;;;18.45;10.18;;;;;;;8.20;100.00;99766.20;4897456;58;1140980;-74
2022/11/04 06:49:04;;;;;;;21.57;10.68;;;;;;;8.24;100.00;99774.70;4897075;58;1140875;-73
2022/11/04 06:54:11;;;;;;;21.57;9.80;;;;;;;8.31;100.00;99783.77;4936729;57;1140895;-73
2022/11/04 06:59:19;;;;;;;31.53;11.57;;;;;;;8.39;100.00;99790.63;4972599;57;1138826;-73
2022/11/04 07:04:25;;;;;;;28.57;10.60;;;;;;;8.52;100.00;99790.00;4997889;57;1140861;-73
2022/11/04 07:09:31;;;;;;;18.27;8.63;;;;;;;8.69;100.00;99778.09;4945972;58;1140708;-73
2022/11/04 07:14:37;;;;;;;21.83;9.67;;;;;;;8.92;100.00;99774.39;4946392;57;1138824;-73
2022/11/04 07:19:44;;;;;;;20.47;10.30;;;;;;;9.17;100.00;99777.12;4921047;58;1138557;-73
2022/11/04 07:24:50;;;;;;;24.12;10.08;;;;;;;9.38;100.00;99779.78;4946149;57;1142394;-74
2022/11/04 07:29:56;;;;;;;15.98;9.25;;;;;;;9.48;100.00;99779.34;4946131;57;1140724;-74
2022/11/04 07:35:02;;;;;;;23.53;11.30;;;;;;;9.60;100.00;99779.65;4961418;57;1138733;-74
2022/11/04 07:40:09;;;;;;;29.23;11.87;;;;;;;9.71;100.00;99786.64;5007432;56;1140849;-74
2022/11/04 07:45:17;;;;;;;25.07;10.60;;;;;;;9.72;100.00;99794.44;4934718;57;1140661;-73
2022/11/04 07:50:22;;;;;;;20.37;10.87;;;;;;;9.75;100.00;99800.78;4978224;57;1141113;-74
2022/11/04 07:55:28;;;;;;;27.37;10.73;;;;;;;9.95;100.00;99799.05;4972245;57;1140802;-74
2022/11/04 08:00:34;;;;;;;46.43;18.33;;;;;;;10.25;100.00;99800.02;4978240;57;1140658;-74
2022/11/04 08:05:40;;;;;;;26.53;14.07;;;;;;;10.46;100.00;99804.75;4945649;58;1142821;-74
2022/11/04 08:10:46;;;;;;;23.43;12.30;;;;;;;10.67;100.00;99800.21;4945447;57;1142709;-73
2022/11/04 08:15:51;;;;;;;29.87;13.73;;;;;;;10.79;100.00;99804.88;4926299;58;1149986;-74
2022/11/04 08:20:58;;;;;;;23.47;12.95;;;;;;;10.81;100.00;99795.00;4945699;57;1142864;-73
2022/11/04 08:26:13;;;;;;;24.25;12.15;;;;;;;10.92;100.00;99793.54;4946025;57;1142934;-73
2022/11/04 08:31:26;;;;;;;35.63;13.20;;;;;;;11.02;100.00;99790.40;4979944;57;1142936;-73
2022/11/04 08:36:39;;;;;;;25.70;12.17;;;;;;;10.97;100.00;99793.97;4965684;57;1143128;-73
2022/11/04 08:41:47;;;;;;;25.50;12.97;;;;;;;10.91;100.00;99794.03;4945359;58;1142910;-73
2022/11/04 08:46:53;;;;;;;25.88;11.15;;;;;;;10.84;100.00;99793.41;4952828;58;1142974;-73
2022/11/04 08:52:00;;;;;;;21.85;11.78;;;;;;;10.84;100.00;99799.54;4945816;58;1142916;-73
2022/11/04 08:57:06;;;;;;;32.37;15.40;;;;;;;10.89;100.00;99800.42;4943709;58;1142956;-73
2022/11/04 09:02:17;;;;;;;23.53;12.20;;;;;;;10.91;100.00;99796.67;4902398;58;1143083;-73
2022/11/04 09:07:24;;;;;;;26.17;11.67;;;;;;;10.87;100.00;99787.81;4891959;58;1142962;-73
2022/11/04 09:12:30;;;;;;;33.47;15.97;;;;;;;10.80;100.00;99792.01;4891624;58;1143115;-73
2022/11/04 09:17:39;;;;;;;27.47;13.67;;;;;;;10.81;100.00;99785.75;4891636;58;1143130;-73
2022/11/04 09:22:49;;;;;;;24.50;13.73;;;;;;;10.86;100.00;99780.37;4891455;58;1143071;-73
2022/11/04 09:27:54;;;;;;;32.63;14.73;;;;;;;10.87;100.00;99767.98;4891680;58;1152149;-73
2022/11/04 09:33:00;;;;;;;22.10;12.25;;;;;;;10.84;100.00;99766.47;4891545;58;1142887;-73
2022/11/04 09:38:06;;;;;;;24.55;12.82;;;;;;;10.90;100.00;99773.00;4962575;58;1143139;-74
2022/11/04 09:43:47;;;;;;;35.83;14.47;;;;;;;10.92;100.00;99762.63;4973961;58;1143077;-67
2022/11/04 09:48:56;;;;;;;25.77;13.27;;;;;;;10.93;100.00;99765.63;4951385;58;1143371;-69
2022/11/04 09:54:07;;;;;;;33.42;14.73;;;;;;;10.99;100.00;99758.11;4974445;57;1143065;-67
2022/11/04 09:59:20;;;;;;;26.13;12.20;;;;;;;11.04;100.00;99747.44;4955353;57;1142976;-68
2022/11/04 10:04:28;;;;;;;;;;;;;;;11.07;100.00;99741.87;4997473;58;1143028;-67
2022/11/04 10:10:16;;;;;;;28.73;12.47;;;;;;;11.06;100.00;99732.26;5009236;57;976244;-65
2022/11/04 10:15:41;;;;;;;27.58;13.22;;;;;;;11.08;100.00;99720.22;5041058;56;1140621;-73
2022/11/04 10:21:09;;;;;;;25.13;13.27;;;;;;;11.13;100.00;99709.56;5077355;57;1142770;-73
2022/11/04 10:26:26;;;;;;;25.57;12.70;;;;;;;11.14;100.00;99706.42;4912628;59;1142819;-73
2022/11/04 10:31:34;;;;;;;25.83;13.17;;;;;;;11.16;100.00;99695.18;4912866;59;1142965;-74
2022/11/04 10:36:41;;;;;;;41.37;21.97;;;;;;;11.17;100.00;99695.53;4869621;58;1143139;-73
2022/11/04 10:41:47;;;;;;;33.15;15.00;;;;;;;11.17;100.00;99703.47;4913883;58;1143091;-73
2022/11/04 10:47:19;;;;;;;25.60;14.53;;;;;;;11.19;100.00;99708.13;4825937;59;1142986;-74
2022/11/04 10:52:25;;;;;;;22.77;12.25;;;;;;;11.22;100.00;99717.13;4766242;60;1143068;-74
2022/11/04 10:57:31;;;;;;;33.83;15.17;;;;;;;11.22;100.00;99695.95;4885601;58;1142871;-74
2022/11/04 11:02:45;;;;;;;26.20;13.63;;;;;;;11.24;100.00;99701.94;4945865;58;1143041;-75
2022/11/04 11:07:56;;;;;;;24.30;11.33;;;;;;;11.24;100.00;99708.06;4846961;59;1143291;-74
2022/11/04 11:13:06;;;;;;;29.47;12.77;;;;;;;11.27;100.00;99703.81;4997631;57;1143069;-74
2022/11/04 11:18:19;;;;;;;28.02;13.50;;;;;;;11.32;100.00;99698.55;4975021;57;1143067;-74
2022/11/04 11:23:38;;;;;;;26.30;14.07;;;;;;;11.34;100.00;99691.31;4975870;57;1142969;-74
2022/11/04 11:28:55;;;;;;;24.97;12.17;;;;;;;11.35;100.00;99699.59;4984600;57;1142953;-74
2022/11/04 11:34:07;;;;;;;30.75;14.30;;;;;;;11.40;100.00;99700.02;4975110;57;1142946;-75
2022/11/04 11:39:22;;;;;;;31.70;14.18;;;;;;;11.42;100.00;99700.22;4975260;57;1142930;-74
2022/11/04 11:44:42;;;;;;;29.83;13.13;;;;;;;11.45;100.00;99693.80;4974905;58;1142941;-74
2022/11/04 11:49:45;;;;;;;28.87;13.10;;;;;;;11.46;100.00;99686.17;4813640;59;1142904;-74
2022/11/04 11:54:54;;;;;;;47.57;26.07;;;;;;;11.48;100.00;99684.22;4971500;58;1143118;-74
2022/11/04 12:00:08;;;;;;;33.60;16.10;;;;;;;11.51;100.00;99687.91;4998541;57;1142944;-74
2022/11/04 12:05:24;;;;;;;41.90;19.20;;;;;;;11.52;100.00;99675.02;5022307;57;1142782;-74
2022/11/04 12:10:46;;;;;;;29.73;15.33;;;;;;;11.52;100.00;99678.98;5000884;57;1142715;-74
2022/11/04 12:16:28;;;;;;;28.17;12.82;;;;;;;11.50;100.00;99667.22;4942061;57;1142934;-74
2022/11/04 12:21:44;;;;;;;30.53;15.97;;;;;;;11.50;100.00;99655.30;4945558;58;1142851;-75
2022/11/04 12:27:12;;;;;;;38.20;18.70;;;;;;;11.53;100.00;99658.16;4943861;57;1143144;-74
2022/11/04 12:32:31;;;;;;;45.75;19.87;;;;;;;11.52;100.00;99642.75;4945712;58;1143266;-75
2022/11/04 12:38:11;;;;;;;37.13;17.20;;;;;;;11.53;100.00;99634.31;4948065;57;1143014;-74
2022/11/04 12:43:24;;;;;;;49.00;22.97;;;;;;;11.53;100.00;99632.50;4968383;57;1142850;-75
2022/11/04 12:48:46;;;;;;;36.50;17.67;;;;;;;11.55;100.00;99646.92;4941826;58;1143104;-75
2022/11/04 12:54:20;;;;;;;42.47;17.23;;;;;;;11.55;100.00;99641.14;4945552;58;1142959;-74
2022/11/04 12:59:51;;;;;;;37.73;17.37;;;;;;;11.54;100.00;99646.09;4964223;57;1142951;-75
2022/11/04 13:05:07;;;;;;;34.20;17.90;;;;;;;11.54;100.00;99651.39;5056498;57;1151512;-75
2022/11/04 13:10:29;;;;;;;35.98;17.82;;;;;;;11.47;100.00;99650.28;5049465;57;1142947;-74
2022/11/04 13:15:43;;;;;;;36.33;17.80;;;;;;;11.40;100.00;99653.19;4982240;58;1142823;-74
2022/11/04 13:21:02;;;;;;;34.53;18.23;;;;;;;11.34;100.00;99656.41;4982781;58;1142959;-75
2022/11/04 13:26:17;;;;;;;34.30;18.10;;;;;;;11.31;100.00;99661.15;5098859;57;1142840;-74
2022/11/04 13:31:41;;;;;;;35.40;17.43;;;;;;;11.23;100.00;99668.50;5015294;57;1142903;-74
2022/11/04 13:37:02;;;;;;;33.87;16.57;;;;;;;11.16;100.00;99678.81;5022513;57;1142797;-74
2022/11/04 13:42:14;;;;;;;31.95;18.32;;;;;;;11.15;100.00;99680.31;5064837;57;1142875;-75
2022/11/04 13:47:27;;;;;;;32.17;18.25;;;;;;;11.12;100.00;99683.23;5035277;57;1142989;-74
2022/11/04 13:52:35;;;;;;;32.50;17.02;;;;;;;11.09;100.00;99682.19;4983482;57;1142950;-74
2022/11/04 13:57:59;;;;;;;34.27;18.83;;;;;;;11.06;100.00;99680.66;4983219;58;1143273;-74
2022/11/04 14:03:30;;;;;;;36.03;20.12;;;;;;;11.03;100.00;99666.88;5049122;57;1142914;-74
2022/11/04 14:08:36;;;;;;;30.33;17.13;;;;;;;10.93;100.00;99675.67;5022559;57;1143007;-73
2022/11/04 14:13:44;;;;;;;66.60;30.37;;;;;;;10.88;100.00;99686.32;4996582;57;1142906;-74
2022/11/04 14:18:52;;;;;;;41.77;19.53;;;;;;;10.85;100.00;99695.86;5022237;57;1143099;-74
2022/11/04 14:23:59;;;;;;;53.13;33.50;;;;;;;10.81;100.00;99697.97;5022866;57;1143193;-75
2022/11/04 14:29:23;;;;;;;37.80;22.37;;;;;;;10.78;100.00;99696.09;4962483;57;1142932;-74
2022/11/04 14:34:34;;;;;;;39.77;20.27;;;;;;;10.78;100.00;99705.34;4945863;57;1142994;-74
2022/11/04 14:39:41;;;;;;;44.40;21.03;;;;;;;10.74;100.00;99701.30;4942826;58;1143012;-74
2022/11/04 14:44:51;;;;;;;47.97;19.60;;;;;;;10.71;100.00;99700.25;4981197;57;1142756;-74
2022/11/04 14:50:07;;;;;;;47.73;21.87;;;;;;;10.68;100.00;99698.75;4976338;57;1142940;-76
2022/11/04 14:55:17;;;;;;;46.75;21.02;;;;;;;10.66;100.00;99694.56;4806980;59;1143084;-76
2022/11/04 15:00:33;;;;;;;38.15;21.12;;;;;;;10.66;100.00;99698.05;4955707;57;1143432;-76
2022/11/04 15:05:41;;;;;;;50.03;24.47;;;;;;;10.63;100.00;99708.90;4933296;58;1143121;-76
2022/11/04 15:10:50;;;;;;;43.67;25.43;;;;;;;10.60;100.00;99699.91;4909577;57;1143002;-76
2022/11/04 15:15:58;;;;;;;53.00;24.30;;;;;;;10.57;100.00;99709.44;4945728;58;1142717;-76
2022/11/04 15:21:06;;;;;;;40.25;22.87;;;;;;;10.56;100.00;99705.96;4945731;58;1142811;-76
2022/11/04 15:26:30;;;;;;;44.20;23.47;;;;;;;10.55;100.00;99699.48;4919660;58;1142992;-76
2022/11/04 15:31:38;;;;;;;45.30;24.97;;;;;;;10.56;100.00;99704.64;4945474;57;1142888;-76
2022/11/04 15:36:46;;;;;;;42.33;22.97;;;;;;;10.57;100.00;99700.19;4952985;56;1142963;-78
2022/11/04 15:47:23;;;;;;;44.53;22.20;;;;;;;10.56;100.00;99713.89;4963240;56;1142953;-77
2022/11/04 15:52:30;;;;;;;33.83;19.00;;;;;;;10.54;100.00;99720.31;4978426;56;1143030;-76
2022/11/04 15:57:41;;;;;;;45.80;22.53;;;;;;;10.55;100.00;99720.16;4989851;57;1142947;-76
2022/11/04 16:02:52;;;;;;;43.50;22.30;;;;;;;10.57;100.00;99720.86;5026730;57;1143143;-77
2022/11/04 16:08:24;;;;;;;48.02;26.27;;;;;;;10.61;100.00;99725.39;5023539;57;1142974;-76
2022/11/04 16:13:29;;;;;;;42.07;22.23;;;;;;;10.58;100.00;99723.02;4974515;57;1143054;-77
2022/11/04 16:18:39;;;;;;;35.93;19.00;;;;;;;10.58;100.00;99738.39;4979960;57;1143145;-77
2022/11/04 16:23:48;;;;;;;61.33;26.60;;;;;;;10.60;100.00;99732.97;4999198;57;1143050;-77
2022/11/04 16:28:58;;;;;;;48.93;23.77;;;;;;;10.58;100.00;99734.42;4960482;57;1142921;-77
2022/11/04 16:34:05;;;;;;;46.85;23.35;;;;;;;10.56;100.00;99739.02;4924896;56;1143064;-77
2022/11/04 16:39:11;;;;;;;40.38;22.17;;;;;;;10.55;100.00;99740.47;4985084;57;1142929;-77
2022/11/04 16:44:22;;;;;;;42.75;23.15;;;;;;;10.55;100.00;99737.83;5026195;57;1143017;-77
2022/11/04 16:49:28;;;;;;;46.30;20.67;;;;;;;10.51;100.00;99739.93;5024541;57;1142843;-77
2022/11/04 16:54:34;;;;;;;51.05;31.25;;;;;;;10.49;100.00;99732.63;4945622;56;1143091;-76
2022/11/04 16:59:39;;;;;;;66.77;29.40;;;;;;;10.50;100.00;99730.33;4969814;56;1142971;-78
2022/11/04 17:04:45;;;;;;;41.13;23.37;;;;;;;10.53;100.00;99719.48;4981706;56;1143040;-77
2022/11/04 17:09:52;;;;;;;47.17;24.03;;;;;;;10.52;100.00;99723.09;4994200;57;1142860;-78
2022/11/04 17:15:00;;;;;;;40.97;21.17;;;;;;;10.49;100.00;99714.60;4985521;56;1143086;-76
2022/11/04 17:20:06;;;;;;;39.13;19.55;;;;;;;10.47;100.00;99712.09;4983422;57;1142888;-74
2022/11/04 17:25:22;;;;;;;42.90;21.12;;;;;;;10.46;100.00;99709.09;5053944;57;1143069;-74
2022/11/04 17:30:28;;;;;;;39.00;21.50;;;;;;;10.45;100.00;99704.78;4889821;59;1142928;-73
2022/11/04 17:35:37;;;;;;;36.60;22.07;;;;;;;10.45;100.00;99703.95;5020372;57;1143082;-77
2022/11/04 17:51:31;;;;;;;38.00;20.43;;;;;;;10.34;100.00;99690.86;5034041;57;1142876;-76
2022/11/04 17:56:39;;;;;;;36.63;20.53;;;;;;;10.31;100.00;99688.00;4988313;57;1142848;-77
2022/11/04 18:01:46;;;;;;;44.00;26.10;;;;;;;10.32;100.00;99698.09;5024494;57;1142807;-77
2022/11/04 18:06:52;;;;;;;47.40;30.33;;;;;;;10.33;100.00;99692.67;5064749;57;1143012;-76
2022/11/04 18:17:23;;;;;;;34.13;19.87;;;;;;;10.31;100.00;99692.45;5008830;57;1142929;-78
2022/11/04 18:22:29;;;;;;;35.83;19.13;;;;;;;10.29;100.00;99689.11;5018549;57;1142841;-78
2022/11/04 18:27:35;;;;;;;34.40;20.07;;;;;;;10.31;100.00;99686.69;4996648;57;1142964;-78
2022/11/04 18:32:41;;;;;;;44.87;24.20;;;;;;;10.37;100.00;99688.79;5006720;58;1142991;-78
2022/11/04 18:37:46;;;;;;;49.53;24.00;;;;;;;10.40;100.00;99688.97;4991305;57;1142751;-78
2022/11/04 18:42:52;;;;;;;71.50;31.97;;;;;;;10.37;100.00;99694.56;4978642;57;1142811;-78
2022/11/04 18:47:58;;;;;;;51.23;28.10;;;;;;;10.37;100.00;99694.56;4896856;58;1142908;-78
2022/11/04 18:53:04;;;;;;;52.20;30.50;;;;;;;10.37;100.00;99691.92;5026992;57;1149756;-78
2022/11/04 18:58:12;;;;;;;89.97;48.48;;;;;;;10.42;100.00;99698.44;4949710;58;1142899;-78
2022/11/04 19:03:19;;;;;;;88.50;46.63;;;;;;;10.47;100.00;99709.45;4943531;57;1142901;-78
2022/11/04 19:08:26;;;;;;;73.70;40.47;;;;;;;10.40;100.00;99708.31;4958340;57;1142933;-78
2022/11/04 19:13:33;;;;;;;53.53;30.70;;;;;;;10.39;100.00;99704.52;4902447;57;1143021;-79
2022/11/04 19:18:40;;;;;;;65.77;33.40;;;;;;;10.41;100.00;99706.50;5049710;57;1143235;-78
2022/11/04 19:23:47;;;;;;;75.90;38.33;;;;;;;10.40;100.00;99710.12;4986384;57;1142878;-73
2022/11/04 19:28:53;;;;;;;98.15;47.83;;;;;;;10.34;100.00;99713.33;5004426;57;1142911;-76
2022/11/04 19:34:03;;;;;;;116.57;56.57;;;;;;;10.33;100.00;99713.81;4983468;58;1142981;-78
2022/11/04 19:39:08;;;;;;;109.95;60.50;;;;;;;10.27;100.00;99707.74;4983590;57;1145206;-77
2022/11/04 19:44:17;;;;;;;104.57;55.67;;;;;;;10.26;100.00;99710.03;4990252;57;1145091;-78
2022/11/04 19:49:24;;;;;;;113.43;55.87;;;;;;;10.19;100.00;99706.28;5016425;57;1145072;-76
2022/11/04 19:54:30;;;;;;;97.03;47.70;;;;;;;10.18;100.00;99702.80;4867747;59;1144952;-76
2022/11/04 19:59:37;;;;;;;80.33;38.77;;;;;;;10.19;100.00;99712.89;4996669;57;1143115;-75
2022/11/04 20:04:45;;;;;;;95.10;44.80;;;;;;;10.18;100.00;99713.38;5007272;57;1143009;-76
2022/11/04 20:09:52;;;;;;;91.10;43.70;;;;;;;10.20;100.00;99707.47;4984064;57;1143034;-76
2022/11/04 20:14:59;;;;;;;75.73;37.07;;;;;;;10.19;100.00;99702.32;4999929;57;1142984;-75
2022/11/04 20:20:06;;;;;;;70.12;35.98;;;;;;;10.20;100.00;99704.83;4939956;57;1145227;-70
2022/11/04 20:25:13;;;;;;;62.62;32.60;;;;;;;10.22;100.00;99712.63;4929362;58;1142924;-66
2022/11/04 20:30:19;;;;;;;69.63;32.30;;;;;;;10.21;100.00;99711.79;4922751;57;1143044;-68
2022/11/04 20:35:25;;;;;;;67.17;34.80;;;;;;;10.22;100.00;99717.91;4903473;57;1142843;-68
2022/11/04 20:40:31;;;;;;;77.93;35.70;;;;;;;10.23;100.00;99713.46;4939631;58;1142921;-66
2022/11/04 20:45:38;;;;;;;68.80;35.03;;;;;;;10.25;100.00;99723.38;4941133;57;1143180;-64
2022/11/04 20:50:44;;;;;;;61.40;31.60;;;;;;;10.25;100.00;99723.38;4905471;57;1142839;-67
2022/11/04 20:55:50;;;;;;;62.30;28.27;;;;;;;10.32;100.00;99749.15;4920979;57;1143132;-68
2022/11/04 21:00:58;;;;;;;65.70;36.37;;;;;;;10.32;100.00;99749.15;5005826;57;1143213;-64
2022/11/04 21:06:05;;;;;;;84.06;46.02;;;;;;;10.38;100.00;99760.99;5058185;57;1142994;-66
2022/11/04 21:11:11;;;;;;;77.22;42.08;;;;;;;10.28;100.00;99768.05;4878524;59;1142927;-66
2022/11/04 21:16:17;;;;;;;67.72;36.60;;;;;;;10.26;100.00;99769.50;4895969;58;1143021;-66
2022/11/04 21:21:24;;;;;;;63.42;34.40;;;;;;;10.34;100.00;99775.45;5021940;57;1142980;-69
2022/11/04 21:26:34;;;;;;;65.53;32.47;;;;;;;10.37;100.00;99777.83;5052473;56;1143061;-65
2022/11/04 21:31:39;;;;;;;66.63;34.93;;;;;;;10.37;100.00;99773.86;4991286;56;1142881;-69
2022/11/04 21:36:45;;;;;;;70.77;40.57;;;;;;;10.46;100.00;99757.17;5021675;57;1143123;-68
2022/11/04 21:41:51;;;;;;;71.00;40.70;;;;;;;10.39;100.00;99747.61;5037926;56;1142935;-70
2022/11/04 21:46:57;;;;;;;74.20;38.75;;;;;;;10.29;100.00;99740.16;5051347;57;1142963;-68
2022/11/04 21:52:03;;;;;;;80.80;43.17;;;;;;;10.32;100.00;99731.12;5090026;56;1143016;-67
2022/11/04 21:57:08;;;;;;;90.50;46.60;;;;;;;10.25;100.00;99737.44;5089884;56;1143173;-67
2022/11/04 22:02:14;;;;;;;87.97;45.70;;;;;;;10.20;100.00;99734.38;4936662;57;1142940;-70
2022/11/04 22:08:15;;;;;;;68.77;39.17;;;;;;;10.27;100.00;99733.34;4969637;56;1142790;-68
2022/11/04 22:12:27;;;;;;;62.47;35.43;;;;;;;10.32;100.00;99735.09;4965710;57;1143054;-67
2022/11/04 22:17:32;;;;;;;69.27;41.90;;;;;;;10.26;100.00;99734.30;4973285;57;1142727;-72
2022/11/04 22:22:39;;;;;;;78.60;44.20;;;;;;;10.21;100.00;99726.81;4981384;57;1143058;-66
2022/11/04 22:27:44;;;;;;;60.30;34.40;;;;;;;10.19;100.00;99737.51;4985361;57;1142825;-69
2022/11/04 22:32:51;;;;;;;46.53;29.87;;;;;;;10.21;100.00;99727.64;5065708;57;1143075;-67
2022/11/04 22:37:57;;;;;;;91.83;55.93;;;;;;;10.22;100.00;99727.16;4998005;57;1142880;-67
2022/11/04 22:43:03;;;;;;;106.83;59.83;;;;;;;10.17;100.00;99731.97;4983827;58;1142851;-67
2022/11/04 22:48:09;;;;;;;112.30;57.60;;;;;;;10.12;100.00;99740.78;4983791;57;1145020;-70
2022/11/04 22:53:15;;;;;;;109.27;53.23;;;;;;;10.18;100.00;99745.53;4983446;58;1145054;-66
2022/11/04 22:58:20;;;;;;;103.55;48.35;;;;;;;10.18;100.00;99745.53;4998911;57;1145056;-64
2022/11/04 23:03:27;;;;;;;60.27;31.13;;;;;;;10.10;100.00;99746.68;4962917;58;1144894;-70
2022/11/04 23:08:34;;;;;;;52.57;31.93;;;;;;;10.02;100.00;99740.77;4891360;59;1142710;-67
2022/11/04 23:19:07;;;;;;;60.73;31.20;;;;;;;9.79;100.00;99726.91;4941887;58;1140869;-68
2022/11/04 23:40:24;;;;;;;51.13;28.57;;;;;;;9.74;100.00;99736.22;4892375;58;1140751;-69
